| time (UTC) | temp F | wind direction | speed MPH | gust MPH | rain 1hr in | rain 24hr in | rain mn in | humidity % | barometer mb |
| 20260507100503 | 48 | 0 | 3.0 | 5.0 | 0.00 | 0.00 | 0.00 | 83 | 1013.0 |
| 20260507100403 | 48 | 0 | 3.0 | 5.0 | 0.00 | 0.00 | 0.00 | 83 | 1013.0 |
| 20260507094502 | 48 | 360 | 3.0 | 5.0 | 0.00 | 0.00 | 0.00 | 78 | 1014.0 |
| 20260507094402 | 48 | 360 | 3.0 | 5.0 | 0.00 | 0.00 | 0.00 | 78 | 1014.0 |
| 20260507092502 | 50 | 360 | 3.0 | 5.0 | 0.00 | 0.00 | 0.00 | 76 | 1013.0 |
| 20260507092402 | 50 | 360 | 3.0 | 5.0 | 0.00 | 0.00 | 0.00 | 76 | 1013.0 |
| 20260507090501 | 48 | 360 | 3.0 | 5.0 | 0.00 | 0.00 | 0.00 | 86 | 1013.0 |
| 20260507090401 | 48 | 360 | 3.0 | 5.0 | 0.00 | 0.00 | 0.00 | 86 | 1013.0 |
| 20260507084501 | 49 | 360 | 3.0 | 5.0 | 0.00 | 0.00 | 0.00 | 86 | 1013.0 |
| 20260507084401 | 49 | 360 | 3.0 | 5.0 | 0.00 | 0.00 | 0.00 | 86 | 1013.0 |
| 20260507082500 | 50 | 359 | 3.0 | 5.0 | 0.00 | 0.00 | 0.00 | 76 | 1013.0 |
| 20260507082400 | 50 | 359 | 3.0 | 5.0 | 0.00 | 0.00 | 0.00 | 76 | 1013.0 |
| 20260507080500 | 48 | 359 | 3.0 | 5.0 | 0.00 | 0.00 | 0.00 | 86 | 1013.0 |
| 20260507080400 | 48 | 359 | 3.0 | 5.0 | 0.00 | 0.00 | 0.00 | 86 | 1013.0 |
| 20260507074459 | 49 | 359 | 3.0 | 5.0 | 0.00 | 0.00 | 0.00 | 86 | 1013.0 |
| 20260507074359 | 49 | 359 | 3.0 | 5.0 | 0.00 | 0.00 | 0.00 | 86 | 1013.0 |
| 20260507072459 | 50 | 359 | 3.0 | 5.0 | 0.00 | 0.00 | 0.00 | 76 | 1013.0 |
| 20260507072359 | 50 | 359 | 3.0 | 5.0 | 0.00 | 0.00 | 0.00 | 76 | 1013.0 |
| 20260507070458 | 48 | 359 | 3.0 | 5.0 | 0.00 | 0.00 | 0.00 | 86 | 1013.0 |
| 20260507070358 | 48 | 359 | 3.0 | 5.0 | 0.00 | 0.00 | 0.00 | 86 | 1013.0 |
| 20260507064457 | 49 | 359 | 3.0 | 5.0 | 0.00 | 0.00 | 0.00 | 86 | 1014.0 |
| 20260507064357 | 49 | 359 | 3.0 | 5.0 | 0.00 | 0.00 | 0.00 | 86 | 1014.0 |
| 20260507062457 | 50 | 358 | 3.0 | 5.0 | 0.00 | 0.00 | 0.00 | 76 | 1014.0 |
| 20260507062357 | 50 | 358 | 3.0 | 5.0 | 0.00 | 0.00 | 0.00 | 76 | 1014.0 |
| 20260507060456 | 49 | 358 | 3.0 | 5.0 | 0.00 | 0.00 | 0.00 | 89 | 1014.0 |
| 20260507060356 | 49 | 358 | 3.0 | 5.0 | 0.00 | 0.00 | 0.00 | 89 | 1014.0 |
| 20260507054456 | 50 | 358 | 3.0 | 5.0 | 0.00 | 0.00 | 0.00 | 76 | 1015.0 |
| 20260507054356 | 50 | 358 | 3.0 | 5.0 | 0.00 | 0.00 | 0.00 | 76 | 1015.0 |
| 20260507052455 | 49 | 2 | 3.0 | 6.0 | 0.00 | 0.00 | 0.00 | 85 | 1014.0 |
| 20260507052355 | 49 | 2 | 3.0 | 6.0 | 0.00 | 0.00 | 0.00 | 85 | 1014.0 |
| 20260507050455 | 49 | 2 | 3.0 | 5.0 | 0.00 | 0.00 | 0.00 | 79 | 1014.0 |
| 20260507050355 | 49 | 2 | 3.0 | 5.0 | 0.00 | 0.00 | 0.00 | 79 | 1014.0 |
| 20260507044454 | 51 | 2 | 3.0 | 6.0 | 0.00 | 0.00 | 0.00 | 76 | 1015.0 |
| 20260507044354 | 51 | 2 | 3.0 | 6.0 | 0.00 | 0.00 | 0.00 | 76 | 1015.0 |
| 20260507042453 | 49 | 2 | 3.0 | 6.0 | 0.00 | 0.00 | 0.00 | 84 | 1015.0 |
| 20260507042353 | 49 | 2 | 3.0 | 6.0 | 0.00 | 0.00 | 0.00 | 84 | 1015.0 |
| 20260507040453 | 50 | 2 | 3.0 | 6.0 | 0.00 | 0.00 | 0.00 | 84 | 1014.0 |
| 20260507040353 | 50 | 2 | 3.0 | 6.0 | 0.00 | 0.00 | 0.00 | 84 | 1014.0 |
| 20260507034452 | 50 | 8 | 3.0 | 7.0 | 0.00 | 0.00 | 0.00 | 78 | 1015.0 |
| 20260507034352 | 50 | 8 | 3.0 | 7.0 | 0.00 | 0.00 | 0.00 | 78 | 1015.0 |
| 20260507032452 | 52 | 8 | 3.0 | 7.0 | 0.00 | 0.00 | 0.00 | 76 | 1014.0 |
| 20260507032352 | 52 | 8 | 3.0 | 7.0 | 0.00 | 0.00 | 0.00 | 76 | 1014.0 |
| 20260507030451 | 50 | 8 | 3.0 | 7.0 | 0.00 | 0.00 | 0.00 | 88 | 1014.0 |
| 20260507030351 | 50 | 8 | 3.0 | 7.0 | 0.00 | 0.00 | 0.00 | 88 | 1014.0 |
| 20260507024450 | 51 | 8 | 3.0 | 7.0 | 0.00 | 0.00 | 0.00 | 88 | 1015.0 |
| 20260507024350 | 51 | 8 | 3.0 | 7.0 | 0.00 | 0.00 | 0.00 | 88 | 1015.0 |
| 20260507022450 | 52 | 16 | 3.0 | 7.0 | 0.00 | 0.00 | 0.00 | 76 | 1013.0 |
| 20260507022350 | 52 | 16 | 3.0 | 7.0 | 0.00 | 0.00 | 0.00 | 76 | 1013.0 |
| 20260507020449 | 50 | 16 | 3.0 | 7.0 | 0.00 | 0.00 | 0.00 | 80 | 1013.0 |
| 20260507020349 | 50 | 16 | 3.0 | 7.0 | 0.00 | 0.00 | 0.00 | 80 | 1013.0 |
| 20260507014449 | 51 | 16 | 3.0 | 7.0 | 0.00 | 0.00 | 0.00 | 80 | 1014.0 |
| 20260507014349 | 51 | 16 | 3.0 | 7.0 | 0.00 | 0.00 | 0.00 | 80 | 1014.0 |
| 20260507012448 | 52 | 23 | 3.0 | 6.0 | 0.00 | 0.00 | 0.00 | 80 | 1012.0 |
| 20260507012348 | 52 | 23 | 3.0 | 6.0 | 0.00 | 0.00 | 0.00 | 80 | 1012.0 |
| 20260507010447 | 52 | 23 | 3.0 | 5.0 | 0.00 | 0.00 | 0.00 | 80 | 1012.0 |
| 20260507010347 | 52 | 23 | 3.0 | 5.0 | 0.00 | 0.00 | 0.00 | 80 | 1012.0 |
| 20260507004447 | 54 | 23 | 3.0 | 6.0 | 0.00 | 0.00 | 0.00 | 80 | 1014.0 |
| 20260507004347 | 54 | 23 | 3.0 | 6.0 | 0.00 | 0.00 | 0.00 | 80 | 1014.0 |
| 20260507002446 | 53 | 38 | 4.0 | 5.0 | 0.00 | 0.00 | 0.00 | 78 | 1012.0 |
| 20260507002346 | 53 | 38 | 4.0 | 5.0 | 0.00 | 0.00 | 0.00 | 78 | 1012.0 |
| 20260507000446 | 55 | 38 | 4.0 | 5.0 | 0.00 | 0.00 | 0.00 | 77 | 1012.0 |
| 20260507000346 | 55 | 38 | 4.0 | 5.0 | 0.00 | 0.00 | 0.00 | 77 | 1012.0 |
| 20260506234445 | 57 | 38 | 4.0 | 6.0 | 0.00 | 0.00 | 0.00 | 75 | 1013.0 |
| 20260506234345 | 57 | 38 | 4.0 | 6.0 | 0.00 | 0.00 | 0.00 | 75 | 1013.0 |
| 20260506232445 | 54 | 59 | 3.0 | 6.0 | 0.00 | 0.00 | 0.00 | 77 | 1012.0 |
| 20260506232344 | 54 | 59 | 3.0 | 6.0 | 0.00 | 0.00 | 0.00 | 77 | 1012.0 |
| 20260506230444 | 54 | 59 | 3.0 | 5.0 | 0.00 | 0.00 | 0.00 | 77 | 1012.0 |
| 20260506230344 | 54 | 59 | 3.0 | 5.0 | 0.00 | 0.00 | 0.00 | 77 | 1012.0 |
| 20260506224443 | 56 | 59 | 3.0 | 6.0 | 0.00 | 0.00 | 0.00 | 77 | 1012.0 |
| 20260506224343 | 56 | 59 | 3.0 | 6.0 | 0.00 | 0.00 | 0.00 | 77 | 1012.0 |
| 20260506222443 | 57 | 67 | 4.0 | 5.0 | 0.00 | 0.00 | 0.00 | 77 | 1011.0 |
| 20260506222343 | 57 | 67 | 4.0 | 5.0 | 0.00 | 0.00 | 0.00 | 77 | 1011.0 |
| 20260506220442 | 57 | 67 | 4.0 | 5.0 | 0.00 | 0.00 | 0.00 | 75 | 1011.0 |
| 20260506220342 | 57 | 67 | 4.0 | 5.0 | 0.00 | 0.00 | 0.00 | 75 | 1011.0 |
| 20260506214442 | 59 | 67 | 4.0 | 5.0 | 0.00 | 0.00 | 0.00 | 74 | 1012.0 |
| 20260506214342 | 59 | 67 | 4.0 | 5.0 | 0.00 | 0.00 | 0.00 | 74 | 1012.0 |
| 20260506212441 | 59 | 66 | 4.0 | 5.0 | 0.00 | 0.00 | 0.00 | 74 | 1011.0 |
| 20260506212341 | 59 | 66 | 4.0 | 5.0 | 0.00 | 0.00 | 0.00 | 74 | 1011.0 |
| 20260506210441 | 59 | 66 | 4.0 | 5.0 | 0.00 | 0.00 | 0.00 | 74 | 1011.0 |
| 20260506210341 | 59 | 66 | 4.0 | 5.0 | 0.00 | 0.00 | 0.00 | 74 | 1011.0 |
| 20260506204440 | 60 | 66 | 4.0 | 5.0 | 0.00 | 0.00 | 0.00 | 76 | 1012.0 |
| 20260506204340 | 60 | 66 | 4.0 | 5.0 | 0.00 | 0.00 | 0.00 | 76 | 1012.0 |
| 20260506202440 | 59 | 63 | 4.0 | 6.0 | 0.00 | 0.00 | 0.00 | 75 | 1012.0 |
| 20260506202340 | 59 | 63 | 4.0 | 6.0 | 0.00 | 0.00 | 0.00 | 75 | 1012.0 |
| 20260506200439 | 61 | 63 | 4.0 | 6.0 | 0.00 | 0.00 | 0.00 | 75 | 1012.0 |
| 20260506200339 | 61 | 63 | 4.0 | 6.0 | 0.00 | 0.00 | 0.00 | 75 | 1012.0 |
| 20260506194438 | 59 | 63 | 4.0 | 6.0 | 0.00 | 0.00 | 0.00 | 75 | 1013.0 |
| 20260506194338 | 59 | 63 | 4.0 | 6.0 | 0.00 | 0.00 | 0.00 | 75 | 1013.0 |
| 20260506192438 | 59 | 65 | 4.0 | 6.0 | 0.01 | 0.00 | 0.00 | 75 | 1013.0 |
| 20260506192338 | 59 | 65 | 4.0 | 6.0 | 0.01 | 0.00 | 0.00 | 75 | 1013.0 |
| 20260506190438 | 60 | 65 | 4.0 | 6.0 | 0.01 | 0.00 | 0.00 | 75 | 1013.0 |
| 20260506190338 | 60 | 65 | 4.0 | 6.0 | 0.01 | 0.00 | 0.00 | 75 | 1013.0 |
| 20260506184437 | 59 | 74 | 4.0 | 5.0 | 0.00 | 0.00 | 0.00 | 75 | 1013.0 |
| 20260506184336 | 59 | 74 | 4.0 | 5.0 | 0.00 | 0.00 | 0.00 | 75 | 1013.0 |
| 20260506182436 | 61 | 74 | 4.0 | 5.0 | 0.01 | 0.00 | 0.00 | 75 | 1013.0 |
| 20260506182336 | 61 | 74 | 4.0 | 5.0 | 0.01 | 0.00 | 0.00 | 75 | 1013.0 |
| 20260506180435 | 59 | 74 | 4.0 | 5.0 | 0.00 | 0.00 | 0.00 | 76 | 1013.0 |
| 20260506180335 | 59 | 74 | 4.0 | 5.0 | 0.00 | 0.00 | 0.00 | 76 | 1013.0 |
| 20260506174435 | 61 | 74 | 4.0 | 5.0 | 0.01 | 0.00 | 0.00 | 76 | 1014.0 |
| 20260506174335 | 61 | 74 | 4.0 | 5.0 | 0.01 | 0.00 | 0.00 | 76 | 1014.0 |
| 20260506172435 | 61 | 76 | 3.0 | 5.0 | 0.00 | 0.00 | 0.00 | 72 | 1014.0 |
| 20260506172335 | 61 | 76 | 3.0 | 5.0 | 0.00 | 0.00 | 0.00 | 72 | 1014.0 |
| 20260506170434 | 60 | 76 | 3.0 | 5.0 | 0.00 | 0.00 | 0.00 | 72 | 1014.0 |
| 20260506170334 | 60 | 76 | 3.0 | 5.0 | 0.00 | 0.00 | 0.00 | 72 | 1014.0 |
| 20260506164434 | 60 | 76 | 3.0 | 5.0 | 0.00 | 0.00 | 0.00 | 72 | 1014.0 |
| 20260506164333 | 60 | 76 | 3.0 | 5.0 | 0.00 | 0.00 | 0.00 | 72 | 1014.0 |
| 20260506162433 | 60 | 61 | 3.0 | 5.0 | 0.00 | 0.00 | 0.00 | 73 | 1014.0 |
| 20260506162333 | 60 | 61 | 3.0 | 5.0 | 0.00 | 0.00 | 0.00 | 73 | 1014.0 |
| 20260506160433 | 60 | 61 | 3.0 | 5.0 | 0.00 | 0.00 | 0.00 | 73 | 1014.0 |
| 20260506160332 | 60 | 61 | 3.0 | 5.0 | 0.00 | 0.00 | 0.00 | 73 | 1014.0 |
| 20260506154432 | 60 | 61 | 3.0 | 5.0 | 0.00 | 0.00 | 0.00 | 73 | 1014.0 |
| 20260506154332 | 60 | 61 | 3.0 | 5.0 | 0.00 | 0.00 | 0.00 | 73 | 1014.0 |
| 20260506152432 | 58 | 41 | 3.0 | 5.0 | 0.00 | 0.00 | 0.00 | 78 | 1014.0 |
| 20260506152331 | 58 | 41 | 3.0 | 5.0 | 0.00 | 0.00 | 0.00 | 78 | 1014.0 |
| 20260506150431 | 58 | 41 | 3.0 | 5.0 | 0.00 | 0.00 | 0.00 | 79 | 1014.0 |
| 20260506150331 | 58 | 41 | 3.0 | 5.0 | 0.00 | 0.00 | 0.00 | 79 | 1014.0 |
| 20260506144431 | 57 | 21 | 4.0 | 7.0 | 0.00 | 0.00 | 0.00 | 80 | 1014.0 |
| 20260506144330 | 57 | 21 | 4.0 | 7.0 | 0.00 | 0.00 | 0.00 | 80 | 1014.0 |
| 20260506142430 | 59 | 21 | 4.0 | 7.0 | 0.00 | 0.00 | 0.00 | 80 | 1014.0 |
| 20260506142330 | 59 | 21 | 4.0 | 7.0 | 0.00 | 0.00 | 0.00 | 80 | 1014.0 |
| 20260506140429 | 58 | 21 | 4.0 | 7.0 | 0.00 | 0.00 | 0.00 | 82 | 1014.0 |
| 20260506140329 | 58 | 21 | 4.0 | 7.0 | 0.00 | 0.00 | 0.00 | 82 | 1014.0 |
| 20260506134429 | 58 | 21 | 4.0 | 7.0 | 0.00 | 0.00 | 0.00 | 81 | 1015.0 |
| 20260506134328 | 58 | 21 | 4.0 | 7.0 | 0.00 | 0.00 | 0.00 | 81 | 1015.0 |
| 20260506132428 | 54 | 14 | 4.0 | 7.0 | 0.00 | 0.00 | 0.00 | 86 | 1013.0 |
| 20260506132328 | 54 | 14 | 4.0 | 7.0 | 0.00 | 0.00 | 0.00 | 86 | 1013.0 |
| 20260506130427 | 54 | 14 | 4.0 | 7.0 | 0.00 | 0.00 | 0.00 | 88 | 1013.0 |
| 20260506130327 | 54 | 14 | 4.0 | 7.0 | 0.00 | 0.00 | 0.00 | 88 | 1013.0 |
| 20260506124427 | 50 | 14 | 4.0 | 7.0 | 0.00 | 0.00 | 0.00 | 89 | 1014.0 |
| 20260506124327 | 50 | 14 | 4.0 | 7.0 | 0.00 | 0.00 | 0.00 | 89 | 1014.0 |
| 20260506122427 | 50 | 6 | 4.0 | 7.0 | 0.00 | 0.00 | 0.00 | 90 | 1013.0 |
| 20260506122327 | 50 | 6 | 4.0 | 7.0 | 0.00 | 0.00 | 0.00 | 90 | 1013.0 |
| 20260506120426 | 52 | 6 | 4.0 | 7.0 | 0.00 | 0.00 | 0.00 | 90 | 1013.0 |
| 20260506120326 | 52 | 6 | 4.0 | 7.0 | 0.00 | 0.00 | 0.00 | 90 | 1013.0 |
| 20260506114425 | 49 | 6 | 4.0 | 7.0 | 0.00 | 0.00 | 0.00 | 79 | 1014.0 |
| 20260506114325 | 49 | 6 | 4.0 | 7.0 | 0.00 | 0.00 | 0.00 | 79 | 1014.0 |
| 20260506112425 | 48 | 2 | 4.0 | 7.0 | 0.00 | 0.00 | 0.00 | 86 | 1012.0 |
| 20260506112325 | 48 | 2 | 4.0 | 7.0 | 0.00 | 0.00 | 0.00 | 86 | 1012.0 |
| 20260506110424 | 49 | 2 | 4.0 | 7.0 | 0.00 | 0.00 | 0.00 | 79 | 1013.0 |
| 20260506110324 | 49 | 2 | 4.0 | 7.0 | 0.00 | 0.00 | 0.00 | 79 | 1013.0 |
| 20260506104424 | 48 | 2 | 4.0 | 7.0 | 0.00 | 0.00 | 0.00 | 87 | 1014.0 |
| 20260506104324 | 48 | 2 | 4.0 | 7.0 | 0.00 | 0.00 | 0.00 | 87 | 1014.0 |
| 20260506102424 | 49 | 3 | 4.0 | 7.0 | 0.00 | 0.00 | 0.00 | 79 | 1013.0 |
| 20260506102323 | 49 | 3 | 4.0 | 7.0 | 0.00 | 0.00 | 0.00 | 79 | 1013.0 |